14 de agosto de 2022

Hora Código Clima Temp. Visibilidade Tecto Vento METAR/SPECI
01:55
V
21 °C 10 km+ - 060° 060° 5 kt METAR EHLE 132355Z AUTO 06005KT 040V100 9999 NCD 21/14 Q1013
01:25
V
22 °C 10 km+ - 070° 070° 7 kt METAR EHLE 132325Z AUTO 07007KT 9999 NCD 22/14 Q1013
00:55
V
22 °C 10 km+ - 060° 060° 6 kt METAR EHLE 132255Z AUTO 06006KT 040V110 9999 NCD 22/14 Q1013
00:25
V
20 °C 10 km+ - 040° 040° 7 kt METAR EHLE 132225Z AUTO 04007KT 9999 NCD 20/14 Q1013

13 de agosto de 2022

Hora Código Clima Temp. Visibilidade Tecto Vento METAR/SPECI
23:55
V
21 °C 10 km+ - 060° 060° 5 kt METAR EHLE 132155Z AUTO 06005KT 9999 NCD 21/14 Q1013
23:25
V
22 °C 10 km+ - 060° 060° 4 kt METAR EHLE 132125Z AUTO 06004KT 9999 NCD 22/14 Q1013
22:55
V
23 °C 10 km+ - 060° 060° 4 kt METAR EHLE 132055Z AUTO 06004KT 9999 NSC 23/14 Q1013
22:25
V
22 °C 10 km+ - 040° 040° 6 kt METAR EHLE 132025Z AUTO 04006KT 9999 NSC 22/14 Q1013
21:55
V
22 °C 10 km+ - 040° 040° 5 kt METAR EHLE 131955Z AUTO 04005KT 9999 NSC 22/14 Q1013
21:25
V
24 °C 10 km+ - 040° 040° 5 kt METAR EHLE 131925Z AUTO 04005KT 9999 NSC 24/13 Q1013 NOSIG
20:55
V
27 °C 10 km+ - 060° 060° 5 kt METAR EHLE 131855Z AUTO 06005KT 9999 NSC 27/12 Q1013 NOSIG
20:25
V
27 °C 10 km+ - 070° 070° 6 kt METAR EHLE 131825Z AUTO 07006KT 9999 NCD 27/12 Q1013 NOSIG
19:55
V
29 °C 10 km+ - 090° 090° 4 kt METAR EHLE 131755Z AUTO 09004KT 060V130 9999 NCD 29/11 Q1013 NOSIG
19:25
V
30 °C 10 km+ - 100° 100° 6 kt METAR EHLE 131725Z AUTO 10006KT 060V140 9999 NCD 30/08 Q1013 NOSIG
18:55
V
30 °C 10 km+ - 100° 100° 9 kt METAR EHLE 131655Z AUTO 10009KT 060V140 9999 NCD 30/08 Q1013 NOSIG
18:25
V
31 °C 10 km+ - 100° 100° 7 kt METAR EHLE 131625Z AUTO 10007KT 050V140 9999 NCD 31/08 Q1014 NOSIG
17:55
V
31 °C 10 km+ - 070° 070° 7 kt METAR EHLE 131555Z AUTO 07007KT 030V100 9999 NCD 31/09 Q1014 NOSIG
17:25
V
31 °C 10 km+ - 130° 130° 7 kt METAR EHLE 131525Z AUTO 13007KT 080V180 9999 NCD 31/08 Q1014 NOSIG
16:55
V
31 °C 10 km+ - 120° 120° 8 kt METAR EHLE 131455Z AUTO 12008KT 070V170 9999 NCD 31/08 Q1015 NOSIG
16:25
V
31 °C 10 km+ - 080° 080° 7 kt METAR EHLE 131425Z AUTO 08007KT 050V130 9999 NCD 31/09 Q1015 NOSIG
15:55
V
31 °C 10 km+ - 110° 110° 8 kt METAR EHLE 131355Z AUTO 11008KT 060V160 9999 NCD 31/09 Q1015 NOSIG
15:25
V
31 °C 10 km+ - 080° 080° 8 kt METAR EHLE 131325Z AUTO 08008KT 040V140 9999 NCD 31/10 Q1015 NOSIG
14:55
V
31 °C 10 km+ - 110° 110° 10 kt METAR EHLE 131255Z AUTO 11010KT 030V170 9999 NCD 31/09 Q1016 NOSIG
14:25
V
31 °C 10 km+ - 150° 150° 9 kt METAR EHLE 131225Z AUTO 15009KT 100V200 9999 NCD 31/09 Q1016
13:55
V
30 °C 10 km+ - 130° 130° 8 kt METAR EHLE 131155Z AUTO 13008KT 080V160 9999 NCD 30/10 Q1016
13:25
V
30 °C 10 km+ - 100° 100° 8 kt METAR EHLE 131125Z AUTO 10008KT 050V160 9999 NCD 30/09 Q1016
12:55
V
30 °C 10 km+ - 100° 100° 8 kt METAR EHLE 131055Z AUTO 10008KT 050V150 9999 NCD 30/10 Q1016
12:25
V
29 °C 10 km+ - 110° 110° 7 kt METAR EHLE 131025Z AUTO 11007KT 050V160 9999 NCD 29/12 Q1017
11:55
V
28 °C 10 km+ - 090° 090° 8 kt METAR EHLE 130955Z AUTO 09008KT 050V160 9999 NCD 28/12 Q1017
11:25
V
27 °C 10 km+ - 100° 100° 7 kt METAR EHLE 130925Z AUTO 10007KT 050V140 9999 NCD 27/10 Q1017
10:55
V
27 °C 10 km+ - 100° 100° 6 kt METAR EHLE 130855Z AUTO 10006KT 070V150 9999 NCD 27/12 Q1017
10:25
V
25 °C 10 km+ - 070° 070° 5 kt METAR EHLE 130825Z AUTO 07005KT 030V110 9999 NCD 25/12 Q1017
09:55
V
24 °C 10 km+ - 100° 100° 5 kt METAR EHLE 130755Z AUTO 10005KT 050V150 9999 NCD 24/12 Q1017
09:25
V
23 °C 10 km+ - 090° 090° 4 kt METAR EHLE 130725Z AUTO 09004KT 050V140 9999 NCD 23/12 Q1017
08:55
V
21 °C 10 km+ - 090° 090° 4 kt METAR EHLE 130655Z AUTO 09004KT 040V120 9999 NCD 21/12 Q1017
08:25
V
19 °C 10 km+ - 050° 050° 4 kt METAR EHLE 130625Z AUTO 05004KT 9999 NCD 19/13 Q1017
07:55
V
18 °C 10 km+ - 060° 060° 4 kt METAR EHLE 130555Z AUTO 06004KT 9999 NCD 18/12 Q1017
07:25
V
17 °C 10 km+ - 060° 060° 4 kt METAR EHLE 130525Z AUTO 06004KT 9999 NCD 17/11 Q1017
06:55
V
15 °C 10 km+ - 060° 060° 5 kt METAR EHLE 130455Z AUTO 06005KT 9999 NCD 15/11 Q1017
06:25
V
16 °C 10 km+ - 060° 060° 5 kt METAR EHLE 130425Z AUTO 06005KT 9999 NCD 16/10 Q1017
05:55
V
14 °C 10 km+ - 050° 050° 5 kt METAR EHLE 130355Z AUTO 05005KT 9999 NCD 14/11 Q1017
05:25
V
15 °C 10 km+ - 050° 050° 5 kt METAR EHLE 130325Z AUTO 05005KT 9999 NCD 15/11 Q1017
04:55
V
15 °C 10 km+ - 050° 050° 4 kt METAR EHLE 130255Z AUTO 05004KT 9999 NCD 15/11 Q1017
04:25
V
15 °C 10 km+ - 050° 050° 4 kt METAR EHLE 130225Z AUTO 05004KT 9999 NCD 15/11 Q1017
03:55
V
16 °C 10 km+ - 050° 050° 4 kt METAR EHLE 130155Z AUTO 05004KT 9999 NCD 16/11 Q1017
03:25
V
17 °C 10 km+ - 060° 060° 3 kt METAR EHLE 130125Z AUTO 06003KT 9999 NCD 17/11 Q1017
02:55
V
17 °C 10 km+ - 050° 050° 6 kt METAR EHLE 130055Z AUTO 05006KT 9999 NCD 17/13 Q1017
02:25
V
17 °C 10 km+ - 050° 050° 7 kt METAR EHLE 130025Z AUTO 05007KT 9999 NCD 17/13 Q1017
01:55
V
18 °C 10 km+ - 050° 050° 7 kt METAR EHLE 122355Z AUTO 05007KT 9999 NCD 18/13 Q1017
01:25
V
17 °C 10 km+ - 040° 040° 6 kt METAR EHLE 122325Z AUTO 04006KT 9999 NCD 17/14 Q1017
00:55
V
18 °C 10 km+ - 040° 040° 5 kt METAR EHLE 122255Z AUTO 04005KT 9999 NCD 18/14 Q1017
00:25
V
19 °C 10 km+ - 040° 040° 5 kt METAR EHLE 122225Z AUTO 04005KT 9999 NCD 19/14 Q1017

12 de agosto de 2022

Hora Código Clima Temp. Visibilidade Tecto Vento METAR/SPECI
23:55
V
19 °C 10 km+ - 040° 040° 6 kt METAR EHLE 122155Z AUTO 04006KT 9999 NCD 19/15 Q1017
23:25
V
21 °C 10 km+ - 050° 050° 8 kt METAR EHLE 122125Z AUTO 05008KT 9999 NCD 21/15 Q1017
22:55
V
21 °C 10 km+ - 040° 040° 8 kt METAR EHLE 122055Z AUTO 04008KT 9999 NCD 21/15 Q1017
22:25
V
21 °C 10 km+ - 040° 040° 8 kt METAR EHLE 122025Z AUTO 04008KT 9999 NCD 21/14 Q1017
21:55
V
22 °C 10 km+ - 040° 040° 8 kt METAR EHLE 121955Z AUTO 04008KT 9999 NCD 22/13 Q1017 NOSIG
21:25
V
25 °C 10 km+ - 060° 060° 7 kt METAR EHLE 121925Z AUTO 06007KT 9999 NCD 25/12 Q1017 NOSIG
20:55
V
26 °C 10 km+ - 050° 050° 8 kt METAR EHLE 121855Z AUTO 05008KT 9999 NCD 26/12 Q1016 NOSIG
20:25
V
28 °C 10 km+ - 050° 050° 8 kt METAR EHLE 121825Z AUTO 05008KT 9999 NCD 28/12 Q1016 NOSIG
19:55
V
29 °C 10 km+ - 050° 050° 9 kt METAR EHLE 121755Z AUTO 05009KT 9999 NCD 29/11 Q1016 NOSIG
19:25
V
30 °C 10 km+ - 050° 050° 11 kt METAR EHLE 121725Z AUTO 05011KT 9999 NCD 30/12 Q1016 NOSIG
18:55
V
30 °C 10 km+ - 050° 050° 11 kt METAR EHLE 121655Z AUTO 05011KT 9999 NCD 30/10 Q1016 NOSIG
18:25
V
31 °C 10 km+ - 060° 060° 11 kt METAR EHLE 121625Z AUTO 06011KT 020V090 9999 NCD 31/11 Q1017 NOSIG
17:55
V
31 °C 10 km+ - 060° 060° 10 kt METAR EHLE 121555Z AUTO 06010KT 020V100 9999 NCD 31/11 Q1017 NOSIG
17:25
V
31 °C 10 km+ - 050° 050° 10 kt METAR EHLE 121525Z AUTO 05010KT 010V090 9999 NCD 31/11 Q1017 NOSIG
16:55
V
31 °C 10 km+ - 050° 050° 10 kt METAR EHLE 121455Z AUTO 05010KT 010V080 9999 NCD 31/11 Q1017 NOSIG
16:25
V
31 °C 10 km+ - 050° 050° 10 kt METAR EHLE 121425Z AUTO 05010KT 010V070 9999 NCD 31/11 Q1017 NOSIG
15:55
V
31 °C 10 km+ - 080° 080° 7 kt METAR EHLE 121355Z AUTO 08007KT 020V160 9999 NCD 31/11 Q1018 NOSIG
15:25
V
31 °C 10 km+ - 100° 100° 8 kt METAR EHLE 121325Z AUTO 10008KT 050V170 9999 NCD 31/10 Q1018 NOSIG
14:55
V
31 °C 10 km+ - 060° 060° 9 kt METAR EHLE 121255Z AUTO 06009KT 020V130 9999 NCD 31/12 Q1018 NOSIG
14:25
V
31 °C 10 km+ - 060° 060° 9 kt METAR EHLE 121225Z AUTO 06009KT 020V120 9999 NCD 31/11 Q1018 NOSIG
13:55
V
30 °C 10 km+ - 070° 070° 9 kt METAR EHLE 121155Z AUTO 07009KT 020V120 9999 NCD 30/11 Q1018 NOSIG
13:25
V
30 °C 10 km+ - 070° 070° 7 kt METAR EHLE 121125Z AUTO 07007KT 030V120 9999 NCD 30/10 Q1019 NOSIG
12:55
V
30 °C 10 km+ - 070° 070° 6 kt METAR EHLE 121055Z AUTO 07006KT 010V120 9999 NCD 30/11 Q1019 NOSIG
12:25
V
29 °C 10 km+ - 080° 080° 7 kt METAR EHLE 121025Z AUTO 08007KT 050V120 9999 NCD 29/12 Q1019 NOSIG
11:55
V
28 °C 10 km+ - 080° 080° 6 kt METAR EHLE 120955Z AUTO 08006KT 020V140 9999 NCD 28/13 Q1020 NOSIG
11:25
V
26 °C 10 km+ - 090° 090° 5 kt METAR EHLE 120925Z AUTO 09005KT 040V120 9999 NCD 26/15 Q1020 NOSIG
10:55
V
25 °C 10 km+ - 070° 070° 5 kt METAR EHLE 120855Z AUTO 07005KT 020V110 9999 NCD 25/15 Q1020 NOSIG
10:25
V
24 °C 10 km+ - 070° 070° 4 kt METAR EHLE 120825Z AUTO 07004KT 030V110 9999 NCD 24/15 Q1020 NOSIG
09:55
V
23 °C 10 km+ - 080° 080° 5 kt METAR EHLE 120755Z AUTO 08005KT 040V110 9999 FEW032CB 23/15 Q1020 NOSIG
09:25
V
21 °C 10 km+ - 070° 070° 4 kt METAR EHLE 120725Z AUTO 07004KT 030V110 9999 NCD 21/15 Q1020 NOSIG
08:55
V
20 °C 10 km+ - 070° 070° 5 kt METAR EHLE 120655Z AUTO 07005KT 020V110 9999 NCD 20/15 Q1020 NOSIG
08:25
V
19 °C 10 km+ - 070° 070° 5 kt METAR EHLE 120625Z AUTO 07005KT 040V100 9999 NCD 19/15 Q1020 NOSIG
07:55
V
18 °C 10 km+ - 050° 050° 7 kt METAR EHLE 120555Z AUTO 05007KT 9999 NCD 18/15 Q1020 NOSIG
07:25
V
16 °C 10 km+ - 050° 050° 6 kt METAR EHLE 120525Z AUTO 05006KT 9999 NCD 16/15 Q1020 NOSIG
06:55
V
15 °C 10 km+ - 050° 050° 7 kt METAR EHLE 120455Z AUTO 05007KT 9999 NCD 15/14 Q1020 NOSIG
06:25
V
15 °C 10 km+ - 050° 050° 7 kt METAR EHLE 120425Z AUTO 05007KT 9999 FEW015CB 15/14 Q1020
05:55
V
15 °C 10 km+ - 050° 050° 6 kt METAR EHLE 120355Z AUTO 05006KT 9999 NCD 15/14 Q1020
05:25
V
16 °C 10 km+ - 050° 050° 6 kt METAR EHLE 120325Z AUTO 05006KT 9999 NCD 16/14 Q1020
04:55
V
17 °C 10 km+ - 050° 050° 7 kt METAR EHLE 120255Z AUTO 05007KT 9999 NCD 17/14 Q1020
04:25
V
17 °C 10 km+ - 050° 050° 6 kt METAR EHLE 120225Z AUTO 05006KT 9999 NCD 17/14 Q1020
03:55
V
17 °C 10 km+ - 050° 050° 6 kt METAR EHLE 120155Z AUTO 05006KT 9999 NCD 17/14 Q1020
03:25
V
16 °C 10 km+ - 050° 050° 5 kt METAR EHLE 120125Z AUTO 05005KT 9999 NCD 16/14 Q1020
02:55
V
18 °C 10 km+ - 070° 070° 3 kt METAR EHLE 120055Z AUTO 07003KT 030V100 9999 NCD 18/14 Q1020
02:25
V
18 °C 10 km+ - 050° 050° 6 kt METAR EHLE 120025Z AUTO 05006KT 9999 NCD 18/15 Q1020
01:55
V
18 °C 10 km+ - 050° 050° 6 kt METAR EHLE 112355Z AUTO 05006KT 9999 NCD 18/14 Q1020
01:25
V
18 °C 10 km+ - 050° 050° 7 kt METAR EHLE 112325Z AUTO 05007KT 9999 NCD 18/14 Q1020
00:55
V
18 °C 10 km+ - 050° 050° 8 kt METAR EHLE 112255Z AUTO 05008KT 9999 NCD 18/15 Q1020
00:25
V
19 °C 10 km+ - 040° 040° 8 kt METAR EHLE 112225Z AUTO 04008KT 9999 NCD 19/15 Q1020

11 de agosto de 2022

Hora Código Clima Temp. Visibilidade Tecto Vento METAR/SPECI
23:55
V
19 °C 10 km+ - 040° 040° 8 kt METAR EHLE 112155Z AUTO 04008KT 9999 NCD 19/15 Q1020
23:25
V
20 °C 10 km+ - 040° 040° 10 kt METAR EHLE 112125Z AUTO 04010KT 9999 NCD 20/15 Q1021
22:55
V
20 °C 10 km+ - 040° 040° 9 kt METAR EHLE 112055Z AUTO 04009KT 9999 NCD 20/15 Q1020
22:25
V
20 °C 10 km+ - 040° 040° 9 kt METAR EHLE 112025Z AUTO 04009KT 9999 NCD 20/15 Q1020
21:55
V
22 °C 10 km+ - 040° 040° 9 kt METAR EHLE 111955Z AUTO 04009KT 9999 NCD 22/14 Q1020 NOSIG
21:25
V
23 °C 10 km+ - 040° 040° 9 kt METAR EHLE 111925Z AUTO 04009KT 9999 NCD 23/14 Q1020 NOSIG
20:55
V
25 °C 10 km+ - 040° 040° 5 kt METAR EHLE 111855Z AUTO 04005KT 9999 NCD 25/13 Q1020 NOSIG
20:25
V
27 °C 10 km+ - 060° 060° 6 kt METAR EHLE 111825Z AUTO 06006KT 9999 NCD 27/11 Q1020 NOSIG
19:55
V
28 °C 10 km+ - 070° 070° 6 kt METAR EHLE 111755Z AUTO 07006KT 040V100 9999 NCD 28/11 Q1020 NOSIG
19:25
V
29 °C 10 km+ - 050° 050° 10 kt METAR EHLE 111725Z AUTO 05010KT 9999 NCD 29/11 Q1020 NOSIG
18:55
V
29 °C 10 km+ - 050° 050° 11 kt METAR EHLE 111655Z AUTO 05011KT 020V080 9999 NCD 29/11 Q1020 NOSIG
18:25
V
29 °C 10 km+ - 050° 050° 13 kt METAR EHLE 111625Z AUTO 05013KT 9999 NCD 29/11 Q1020 NOSIG
17:55
V
30 °C 10 km+ - 040° 040° 11 kt METAR EHLE 111555Z AUTO 04011KT 360V080 9999 NCD 30/11 Q1020 NOSIG
17:25
V
30 °C 10 km+ - 040° 040° 14 kt METAR EHLE 111525Z AUTO 04014KT 010V070 9999 NCD 30/11 Q1020 NOSIG
16:55
V
30 °C 10 km+ - 050° 050° 10 kt METAR EHLE 111455Z AUTO 05010KT 350V100 9999 NCD 30/10 Q1021 NOSIG
Dados mais antigos

Nós e terceiros acompanhamos seu comportamento na internet em nosso site com cookies. Se você continuar, nós assumimos que você concorda com nossa política de cookies. Saiba mais